MRN77 LEVC-LEDA
Flight info
| Callsign | MRN77 |
|---|---|
| Flight time | 0h 46m |
| Altitude | 22000 |
| Route | SOPET DCT CTN DCT MLA DCT OSVAK |
| Aircraft | TBM8/L-SDFGRWY/S |
Departure
| Time | 2026-05-04 21:22 |
|---|---|
| Airport | Valencia Airport (LEVC) |
Arrival
| Time | 2026-05-04 22:08 |
|---|---|
| Airport | Lleida-Alguaire Airport (LEDA) |
| Time | Latitude | Longitude | Altitude | Speed | Heading |
|---|---|---|---|---|---|
| 2026-05-04 21:07 | 39.49125 | -0.47536 | 204 ft | 0 kts | 45° |
| 2026-05-04 21:14 | 39.49125 | -0.47535 | 204 ft | 0 kts | 45° |
| 2026-05-04 21:14 | 39.49108 | -0.47524 | 207 ft | 10 kts | 189° |
| 2026-05-04 21:15 | 39.49062 | -0.47623 | 204 ft | 11 kts | 268° |
| 2026-05-04 21:15 | 39.49066 | -0.47708 | 204 ft | 12 kts | 279° |
| 2026-05-04 21:15 | 39.49097 | -0.47853 | 206 ft | 21 kts | 295° |
| 2026-05-04 21:15 | 39.49147 | -0.47984 | 205 ft | 15 kts | 294° |
| 2026-05-04 21:16 | 39.49205 | -0.48138 | 204 ft | 23 kts | 294° |
| 2026-05-04 21:16 | 39.49266 | -0.48302 | 210 ft | 14 kts | 281° |
| 2026-05-04 21:16 | 39.49228 | -0.48398 | 208 ft | 15 kts | 265° |
| 2026-05-04 21:16 | 39.49200 | -0.48491 | 204 ft | 0 kts | 211° |
| 2026-05-04 21:21 | 39.49183 | -0.48502 | 204 ft | 10 kts | 201° |
| 2026-05-04 21:21 | 39.49101 | -0.48497 | 204 ft | 14 kts | 154° |
| 2026-05-04 21:21 | 39.49022 | -0.48375 | 203 ft | 25 kts | 113° |
| 2026-05-04 21:22 | 39.48860 | -0.47948 | 206 ft | 82 kts | 117° |
| 2026-05-04 21:22 | 39.48524 | -0.47146 | 308 ft | 119 kts | 117° |
| 2026-05-04 21:22 | 39.48099 | -0.46089 | 604 ft | 140 kts | 115° |
| 2026-05-04 21:22 | 39.47605 | -0.44887 | 883 ft | 159 kts | 119° |
| 2026-05-04 21:23 | 39.47100 | -0.43642 | 1504 ft | 151 kts | 118° |
| 2026-05-04 21:23 | 39.46497 | -0.42489 | 1951 ft | 157 kts | 133° |
| 2026-05-04 21:23 | 39.45760 | -0.41439 | 2461 ft | 159 kts | 133° |
| 2026-05-04 21:23 | 39.45037 | -0.40346 | 2976 ft | 161 kts | 131° |
| 2026-05-04 21:24 | 39.44311 | -0.39196 | 3406 ft | 169 kts | 130° |
| 2026-05-04 21:24 | 39.43566 | -0.38000 | 3871 ft | 173 kts | 130° |
| 2026-05-04 21:24 | 39.42809 | -0.36763 | 4352 ft | 177 kts | 130° |
| 2026-05-04 21:24 | 39.42044 | -0.35498 | 4867 ft | 180 kts | 130° |
| 2026-05-04 21:25 | 39.41265 | -0.34216 | 5386 ft | 183 kts | 130° |
| 2026-05-04 21:25 | 39.40476 | -0.32919 | 5908 ft | 185 kts | 131° |
| 2026-05-04 21:25 | 39.39681 | -0.31600 | 6429 ft | 187 kts | 129° |
| 2026-05-04 21:25 | 39.39019 | -0.30258 | 6890 ft | 191 kts | 115° |
| 2026-05-04 21:26 | 39.39016 | -0.28572 | 7371 ft | 193 kts | 66° |
| 2026-05-04 21:26 | 39.39917 | -0.27373 | 7851 ft | 187 kts | 21° |
| 2026-05-04 21:26 | 39.41144 | -0.26861 | 8343 ft | 187 kts | 17° |
| 2026-05-04 21:26 | 39.42359 | -0.26195 | 8830 ft | 191 kts | 18° |
| 2026-05-04 21:27 | 39.43628 | -0.25673 | 9310 ft | 192 kts | 8° |
| 2026-05-04 21:27 | 39.44946 | -0.25360 | 9803 ft | 194 kts | 5° |
| 2026-05-04 21:27 | 39.46282 | -0.25052 | 10261 ft | 196 kts | 5° |
| 2026-05-04 21:27 | 39.47037 | -0.24885 | 10521 ft | 196 kts | 5° |
| 2026-05-04 21:28 | 39.48407 | -0.24589 | 10993 ft | 197 kts | 4° |
| 2026-05-04 21:28 | 39.49764 | -0.24306 | 11460 ft | 198 kts | 4° |
| 2026-05-04 21:28 | 39.51129 | -0.24024 | 11929 ft | 199 kts | 4° |
| 2026-05-04 21:28 | 39.52504 | -0.23740 | 12399 ft | 200 kts | 4° |
| 2026-05-04 21:29 | 39.53882 | -0.23461 | 12868 ft | 201 kts | 3° |
| 2026-05-04 21:29 | 39.55273 | -0.23177 | 13341 ft | 203 kts | 3° |
| 2026-05-04 21:29 | 39.56670 | -0.22893 | 13796 ft | 204 kts | 3° |
| 2026-05-04 21:29 | 39.58096 | -0.22601 | 14213 ft | 205 kts | 3° |
| 2026-05-04 21:30 | 39.59534 | -0.22307 | 14546 ft | 211 kts | 3° |
| 2026-05-04 21:30 | 39.60989 | -0.22005 | 14939 ft | 213 kts | 3° |
| 2026-05-04 21:30 | 39.62456 | -0.21703 | 15329 ft | 215 kts | 2° |
| 2026-05-04 21:30 | 39.63938 | -0.21398 | 15722 ft | 216 kts | 2° |
| 2026-05-04 21:31 | 39.66936 | -0.20713 | 16504 ft | 224 kts | 12° |
| 2026-05-04 21:31 | 39.68291 | -0.19627 | 16883 ft | 236 kts | 40° |
| 2026-05-04 21:31 | 39.69462 | -0.18115 | 17252 ft | 239 kts | 42° |
| 2026-05-04 21:32 | 39.70650 | -0.16583 | 17646 ft | 241 kts | 41° |
| 2026-05-04 21:32 | 39.71848 | -0.15044 | 18033 ft | 244 kts | 41° |
| 2026-05-04 21:32 | 39.73061 | -0.13493 | 18401 ft | 246 kts | 41° |
| 2026-05-04 21:32 | 39.74209 | -0.12027 | 18715 ft | 247 kts | 41° |
| 2026-05-04 21:33 | 39.74980 | -0.11043 | 18926 ft | 248 kts | 41° |
| 2026-05-04 21:33 | 39.76217 | -0.09465 | 19259 ft | 250 kts | 41° |
| 2026-05-04 21:33 | 39.77397 | -0.07962 | 19574 ft | 252 kts | 41° |
| 2026-05-04 21:33 | 39.78653 | -0.06359 | 19906 ft | 254 kts | 41° |
| 2026-05-04 21:34 | 39.79919 | -0.04746 | 20237 ft | 256 kts | 41° |
| 2026-05-04 21:34 | 39.81193 | -0.03120 | 20568 ft | 258 kts | 41° |
| 2026-05-04 21:34 | 39.82481 | -0.01501 | 20890 ft | 258 kts | 37° |
| 2026-05-04 21:34 | 39.83910 | -0.00361 | 21177 ft | 251 kts | 14° |
| 2026-05-04 21:35 | 39.85576 | 0.00149 | 21516 ft | 244 kts | 1° |
| 2026-05-04 21:35 | 39.87254 | 0.00554 | 21851 ft | 247 kts | 3° |
| 2026-05-04 21:35 | 39.88980 | 0.00998 | 21930 ft | 260 kts | 4° |
| 2026-05-04 21:35 | 39.90797 | 0.01472 | 21961 ft | 273 kts | 4° |
| 2026-05-04 21:36 | 39.92696 | 0.01972 | 21972 ft | 284 kts | 5° |
| 2026-05-04 21:36 | 39.94661 | 0.02491 | 21977 ft | 292 kts | 5° |
| 2026-05-04 21:36 | 39.95993 | 0.02841 | 21979 ft | 297 kts | 5° |
| 2026-05-04 21:36 | 39.97756 | 0.03300 | 21981 ft | 302 kts | 5° |
| 2026-05-04 21:37 | 39.99834 | 0.03836 | 21983 ft | 306 kts | 5° |
| 2026-05-04 21:37 | 40.01934 | 0.04371 | 21981 ft | 310 kts | 5° |
| 2026-05-04 21:37 | 40.04066 | 0.04910 | 21980 ft | 312 kts | 5° |
| 2026-05-04 21:37 | 40.06203 | 0.05446 | 21982 ft | 314 kts | 5° |
| 2026-05-04 21:38 | 40.08359 | 0.05983 | 21992 ft | 316 kts | 5° |
| 2026-05-04 21:38 | 40.10520 | 0.06518 | 21995 ft | 317 kts | 5° |
| 2026-05-04 21:38 | 40.12687 | 0.07054 | 22000 ft | 318 kts | 5° |
| 2026-05-04 21:38 | 40.14863 | 0.07592 | 21993 ft | 318 kts | 5° |
| 2026-05-04 21:39 | 40.17045 | 0.08129 | 21988 ft | 319 kts | 5° |
| 2026-05-04 21:39 | 40.19223 | 0.08666 | 21983 ft | 319 kts | 5° |
| 2026-05-04 21:39 | 40.21406 | 0.09142 | 21979 ft | 317 kts | 2° |
| 2026-05-04 21:39 | 40.23592 | 0.09442 | 21982 ft | 315 kts | 359° |
| 2026-05-04 21:40 | 40.25771 | 0.09612 | 21989 ft | 314 kts | 358° |
| 2026-05-04 21:40 | 40.27949 | 0.09792 | 21994 ft | 315 kts | 358° |
| 2026-05-04 21:40 | 40.30134 | 0.09979 | 21988 ft | 315 kts | 358° |
| 2026-05-04 21:40 | 40.31463 | 0.10092 | 21986 ft | 315 kts | 358° |
| 2026-05-04 21:41 | 40.33580 | 0.10274 | 21987 ft | 314 kts | 358° |
| 2026-05-04 21:41 | 40.35763 | 0.10458 | 21985 ft | 314 kts | 358° |
| 2026-05-04 21:41 | 40.37944 | 0.10641 | 21986 ft | 314 kts | 358° |
| 2026-05-04 21:41 | 40.40127 | 0.10823 | 21980 ft | 314 kts | 358° |
| 2026-05-04 21:42 | 40.42304 | 0.11004 | 21976 ft | 314 kts | 358° |
| 2026-05-04 21:42 | 40.44485 | 0.11186 | 21970 ft | 314 kts | 358° |
| 2026-05-04 21:42 | 40.46694 | 0.11369 | 21976 ft | 314 kts | 358° |
| 2026-05-04 21:42 | 40.48869 | 0.11551 | 21976 ft | 313 kts | 358° |
| 2026-05-04 21:43 | 40.51048 | 0.11732 | 21981 ft | 314 kts | 358° |
| 2026-05-04 21:43 | 40.53226 | 0.11914 | 21984 ft | 314 kts | 358° |
| 2026-05-04 21:43 | 40.55404 | 0.12093 | 21985 ft | 314 kts | 358° |
| 2026-05-04 21:43 | 40.57585 | 0.12273 | 21992 ft | 314 kts | 358° |
| 2026-05-04 21:44 | 40.59766 | 0.12456 | 21991 ft | 314 kts | 359° |
| 2026-05-04 21:44 | 40.61948 | 0.12637 | 21992 ft | 314 kts | 359° |
| 2026-05-04 21:44 | 40.64131 | 0.12822 | 21983 ft | 314 kts | 359° |
| 2026-05-04 21:44 | 40.66315 | 0.13004 | 21976 ft | 314 kts | 359° |
| 2026-05-04 21:45 | 40.68496 | 0.13185 | 21980 ft | 314 kts | 359° |
| 2026-05-04 21:45 | 40.70676 | 0.13367 | 21988 ft | 314 kts | 359° |
| 2026-05-04 21:45 | 40.72856 | 0.13550 | 21981 ft | 314 kts | 359° |
| 2026-05-04 21:45 | 40.75037 | 0.13727 | 21961 ft | 313 kts | 358° |
| 2026-05-04 21:46 | 40.77213 | 0.13898 | 21970 ft | 313 kts | 359° |
| 2026-05-04 21:46 | 40.79390 | 0.14088 | 21980 ft | 313 kts | 359° |
| 2026-05-04 21:46 | 40.81564 | 0.14280 | 21991 ft | 313 kts | 359° |
| 2026-05-04 21:46 | 40.82712 | 0.14377 | 21992 ft | 314 kts | 359° |
| 2026-05-04 21:47 | 40.84916 | 0.14560 | 21984 ft | 314 kts | 359° |
| 2026-05-04 21:47 | 40.87093 | 0.14743 | 21976 ft | 314 kts | 359° |
| 2026-05-04 21:47 | 40.89262 | 0.14933 | 21978 ft | 307 kts | 360° |
| 2026-05-04 21:47 | 40.91333 | 0.15142 | 21974 ft | 291 kts | 359° |
| 2026-05-04 21:48 | 40.93313 | 0.15302 | 21964 ft | 280 kts | 358° |
| 2026-05-04 21:48 | 40.95239 | 0.15432 | 21966 ft | 273 kts | 357° |
| 2026-05-04 21:48 | 40.97161 | 0.15561 | 21611 ft | 281 kts | 358° |
| 2026-05-04 21:48 | 40.99128 | 0.15716 | 21220 ft | 286 kts | 359° |
| 2026-05-04 21:49 | 41.01122 | 0.15891 | 20840 ft | 288 kts | 360° |
| 2026-05-04 21:49 | 41.03129 | 0.16076 | 20463 ft | 289 kts | 360° |
| 2026-05-04 21:49 | 41.05131 | 0.16260 | 20089 ft | 288 kts | 0° |
| 2026-05-04 21:49 | 41.07129 | 0.16442 | 19708 ft | 287 kts | 0° |
| 2026-05-04 21:50 | 41.09119 | 0.16619 | 19347 ft | 286 kts | 0° |
| 2026-05-04 21:50 | 41.11097 | 0.16792 | 18984 ft | 284 kts | 1° |
| 2026-05-04 21:50 | 41.13038 | 0.17345 | 18661 ft | 288 kts | 19° |
| 2026-05-04 21:50 | 41.14779 | 0.18662 | 18331 ft | 289 kts | 34° |
| 2026-05-04 21:51 | 41.16403 | 0.20228 | 17929 ft | 288 kts | 35° |
| 2026-05-04 21:51 | 41.18009 | 0.21803 | 17517 ft | 286 kts | 35° |
| 2026-05-04 21:51 | 41.19602 | 0.23369 | 17115 ft | 285 kts | 35° |
| 2026-05-04 21:51 | 41.21191 | 0.24925 | 16715 ft | 283 kts | 35° |
| 2026-05-04 21:52 | 41.22773 | 0.26467 | 16317 ft | 281 kts | 34° |
| 2026-05-04 21:52 | 41.24344 | 0.27991 | 15934 ft | 279 kts | 34° |
| 2026-05-04 21:52 | 41.25914 | 0.29494 | 15547 ft | 277 kts | 33° |
| 2026-05-04 21:52 | 41.27495 | 0.30942 | 15174 ft | 275 kts | 33° |
| 2026-05-04 21:53 | 41.29060 | 0.32394 | 14802 ft | 273 kts | 33° |
| 2026-05-04 21:53 | 41.30606 | 0.33851 | 14428 ft | 271 kts | 34° |
| 2026-05-04 21:53 | 41.32135 | 0.35312 | 14053 ft | 270 kts | 34° |
| 2026-05-04 21:53 | 41.33639 | 0.36763 | 13674 ft | 264 kts | 34° |
| 2026-05-04 21:54 | 41.35130 | 0.38196 | 13277 ft | 264 kts | 34° |
| 2026-05-04 21:54 | 41.36613 | 0.39625 | 12875 ft | 263 kts | 34° |
| 2026-05-04 21:54 | 41.38087 | 0.41056 | 12479 ft | 261 kts | 34° |
| 2026-05-04 21:54 | 41.39548 | 0.42476 | 12088 ft | 259 kts | 34° |
| 2026-05-04 21:55 | 41.40356 | 0.43259 | 11876 ft | 258 kts | 34° |
| 2026-05-04 21:55 | 41.42292 | 0.45142 | 11368 ft | 257 kts | 34° |
| 2026-05-04 21:55 | 41.43245 | 0.46069 | 11126 ft | 255 kts | 34° |
| 2026-05-04 21:55 | 41.45020 | 0.47608 | 10644 ft | 249 kts | 20° |
| 2026-05-04 21:56 | 41.46121 | 0.47983 | 10380 ft | 245 kts | 6° |
| 2026-05-04 21:56 | 41.47793 | 0.48330 | 10044 ft | 241 kts | 6° |
| 2026-05-04 21:56 | 41.49402 | 0.48664 | 10004 ft | 228 kts | 5° |
| 2026-05-04 21:56 | 41.50961 | 0.48946 | 9987 ft | 220 kts | 4° |
| 2026-05-04 21:57 | 41.52463 | 0.49206 | 9982 ft | 215 kts | 4° |
| 2026-05-04 21:57 | 41.53916 | 0.49460 | 9980 ft | 212 kts | 4° |
| 2026-05-04 21:57 | 41.55397 | 0.49722 | 9979 ft | 211 kts | 4° |
| 2026-05-04 21:57 | 41.56827 | 0.49979 | 9980 ft | 210 kts | 4° |
| 2026-05-04 21:58 | 41.58291 | 0.50243 | 9981 ft | 209 kts | 4° |
| 2026-05-04 21:58 | 41.59771 | 0.50515 | 9638 ft | 222 kts | 5° |
| 2026-05-04 21:58 | 41.61327 | 0.50825 | 9200 ft | 229 kts | 6° |
| 2026-05-04 21:58 | 41.62902 | 0.51145 | 8758 ft | 230 kts | 6° |
| 2026-05-04 21:59 | 41.64487 | 0.51450 | 8317 ft | 230 kts | 5° |
| 2026-05-04 21:59 | 41.66067 | 0.51741 | 7892 ft | 228 kts | 6° |
| 2026-05-04 21:59 | 41.67635 | 0.52047 | 7470 ft | 224 kts | 7° |
| 2026-05-04 21:59 | 41.69110 | 0.52370 | 7047 ft | 207 kts | 6° |
| 2026-05-04 22:00 | 41.70505 | 0.52654 | 6651 ft | 199 kts | 5° |
| 2026-05-04 22:00 | 41.71856 | 0.52905 | 6276 ft | 193 kts | 4° |
| 2026-05-04 22:00 | 41.73179 | 0.53137 | 5886 ft | 190 kts | 3° |
| 2026-05-04 22:00 | 41.74480 | 0.53360 | 5504 ft | 188 kts | 2° |
| 2026-05-04 22:01 | 41.75743 | 0.53258 | 5146 ft | 180 kts | 330° |
| 2026-05-04 22:01 | 41.76713 | 0.52250 | 4792 ft | 176 kts | 315° |
| 2026-05-04 22:01 | 41.77620 | 0.51139 | 4413 ft | 177 kts | 315° |
| 2026-05-04 22:01 | 41.78500 | 0.50024 | 4181 ft | 171 kts | 314° |
| 2026-05-04 22:02 | 41.79335 | 0.48948 | 4072 ft | 163 kts | 315° |
| 2026-05-04 22:02 | 41.80131 | 0.47916 | 4026 ft | 156 kts | 314° |
| 2026-05-04 22:02 | 41.80891 | 0.46901 | 4005 ft | 152 kts | 313° |
| 2026-05-04 22:02 | 41.81621 | 0.45890 | 3998 ft | 150 kts | 311° |
| 2026-05-04 22:03 | 41.82335 | 0.44887 | 3991 ft | 148 kts | 312° |
| 2026-05-04 22:03 | 41.83054 | 0.43901 | 3987 ft | 148 kts | 313° |
| 2026-05-04 22:03 | 41.83584 | 0.42758 | 3934 ft | 148 kts | 283° |
| 2026-05-04 22:03 | 41.83455 | 0.41379 | 3602 ft | 154 kts | 245° |
| 2026-05-04 22:04 | 41.82724 | 0.40478 | 3262 ft | 140 kts | 205° |
| 2026-05-04 22:04 | 41.81768 | 0.40466 | 2910 ft | 142 kts | 163° |
| 2026-05-04 22:04 | 41.81022 | 0.41314 | 2572 ft | 144 kts | 124° |
| 2026-05-04 22:04 | 41.80538 | 0.42383 | 2525 ft | 125 kts | 127° |
| 2026-05-04 22:05 | 41.80022 | 0.43261 | 2500 ft | 118 kts | 133° |
| 2026-05-04 22:05 | 41.79469 | 0.44119 | 2494 ft | 126 kts | 134° |
| 2026-05-04 22:05 | 41.78851 | 0.44978 | 2497 ft | 130 kts | 137° |
| 2026-05-04 22:05 | 41.78216 | 0.45836 | 2501 ft | 129 kts | 137° |
| 2026-05-04 22:06 | 41.77613 | 0.46675 | 2434 ft | 115 kts | 135° |
| 2026-05-04 22:06 | 41.77104 | 0.47433 | 2285 ft | 106 kts | 133° |
| 2026-05-04 22:06 | 41.76615 | 0.48150 | 2137 ft | 103 kts | 136° |
| 2026-05-04 22:06 | 41.76121 | 0.48836 | 1980 ft | 102 kts | 136° |
| 2026-05-04 22:07 | 41.75654 | 0.49539 | 1840 ft | 100 kts | 136° |
| 2026-05-04 22:07 | 41.75191 | 0.50220 | 1705 ft | 98 kts | 136° |
| 2026-05-04 22:07 | 41.74703 | 0.50884 | 1531 ft | 101 kts | 138° |
| 2026-05-04 22:07 | 41.74218 | 0.51540 | 1370 ft | 97 kts | 140° |
| 2026-05-04 22:08 | 41.73772 | 0.52156 | 1235 ft | 86 kts | 137° |
| 2026-05-04 22:08 | 41.73387 | 0.52717 | 1162 ft | 78 kts | 136° |
| 2026-05-04 22:08 | 41.73050 | 0.53168 | 1143 ft | 55 kts | 134° |
| 2026-05-04 22:08 | 41.72880 | 0.53409 | 1144 ft | 21 kts | 133° |
| 2026-05-04 22:09 | 41.72794 | 0.53543 | 1146 ft | 22 kts | 128° |
| 2026-05-04 22:09 | 41.72675 | 0.53711 | 1148 ft | 13 kts | 118° |
| 2026-05-04 22:09 | 41.72671 | 0.53789 | 1148 ft | 8 kts | 68° |
| 2026-05-04 22:09 | 41.72704 | 0.53840 | 1148 ft | 7 kts | 43° |
| 2026-05-04 22:10 | 41.72763 | 0.53915 | 1148 ft | 15 kts | 44° |
| 2026-05-04 22:10 | 41.72813 | 0.53978 | 1146 ft | 7 kts | 43° |
| 2026-05-04 22:10 | 41.72849 | 0.54023 | 1145 ft | 6 kts | 42° |
| 2026-05-04 22:10 | 41.72887 | 0.54072 | 1145 ft | 13 kts | 41° |
| 2026-05-04 22:11 | 41.72925 | 0.54113 | 1145 ft | 4 kts | 16° |
| 2026-05-04 22:11 | 41.72948 | 0.54085 | 1145 ft | 3 kts | 230° |
| 2026-05-04 22:11 | 41.72935 | 0.54069 | 1145 ft | 0 kts | 220° |